createdAt,value
2018-01-13T00:00:44.302Z,76.10
2018-01-13T00:02:46.976Z,76.00
2018-01-13T00:04:49.624Z,75.93
2018-01-13T00:06:52.285Z,77.20
2018-01-13T00:08:55.732Z,76.27
2018-01-13T00:10:58.380Z,75.57
2018-01-13T00:13:01.267Z,79.37
2018-01-13T00:15:03.997Z,79.60
2018-01-13T00:17:07.412Z,79.27
2018-01-13T00:19:10.130Z,84.43
2018-01-13T00:21:12.826Z,76.40
2018-01-13T00:23:15.463Z,78.77
2018-01-13T00:25:18.158Z,77.70
2018-01-13T00:27:20.807Z,78.10
2018-01-13T00:29:23.479Z,78.80
2018-01-13T00:31:26.185Z,78.07
2018-01-13T00:33:28.830Z,77.63
2018-01-13T00:35:31.495Z,76.67
2018-01-13T00:37:34.186Z,76.73
2018-01-13T00:39:36.850Z,77.47
2018-01-13T00:41:39.538Z,76.67
2018-01-13T00:43:42.220Z,76.87
2018-01-13T00:45:44.887Z,78.90
2018-01-13T00:47:47.668Z,76.83
2018-01-13T00:49:50.445Z,76.90
2018-01-13T00:51:53.091Z,75.87
2018-01-13T00:53:56.522Z,77.27
2018-01-13T00:55:59.200Z,78.23
2018-01-13T00:58:01.863Z,78.00
2018-01-13T01:00:04.523Z,78.50
2018-01-13T01:02:08.018Z,78.80
2018-01-13T01:04:11.453Z,77.33
2018-01-13T01:06:14.107Z,75.67
2018-01-13T01:08:16.792Z,78.07
2018-01-13T01:10:19.542Z,77.10
2018-01-13T01:12:22.961Z,78.87
2018-01-13T01:14:25.638Z,80.13
2018-01-13T01:16:28.306Z,77.77
2018-01-13T01:18:31.292Z,76.83
2018-01-13T01:20:33.978Z,78.80
2018-01-13T01:22:36.638Z,78.43
2018-01-13T01:24:39.307Z,80.20
2018-01-13T01:26:41.982Z,82.20
2018-01-13T01:28:44.672Z,85.23
2018-01-13T01:30:47.324Z,82.23
2018-01-13T01:32:50.778Z,80.90
2018-01-13T01:34:55.008Z,84.70
2018-01-13T01:36:57.660Z,82.10
2018-01-13T01:39:00.350Z,83.53
2018-01-13T01:41:03.004Z,80.23
2018-01-13T01:43:05.652Z,85.10
2018-01-13T01:45:08.343Z,84.40
2018-01-13T01:47:11.001Z,82.60
2018-01-13T01:49:13.669Z,83.10
2018-01-13T01:51:16.340Z,85.47
2018-01-13T01:53:19.859Z,86.20
2018-01-13T01:55:22.519Z,82.33
2018-01-13T01:57:25.211Z,82.80
2018-01-13T01:59:27.866Z,84.40
2018-01-13T02:01:30.566Z,84.53
2018-01-13T02:03:33.474Z,84.50
2018-01-13T02:05:36.115Z,85.80
2018-01-13T02:07:38.790Z,78.97
2018-01-13T02:09:41.483Z,84.80
2018-01-13T02:11:44.143Z,87.53
2018-01-13T02:13:46.912Z,80.67
2018-01-13T02:15:49.603Z,76.27
2018-01-13T02:17:52.277Z,78.13
2018-01-13T02:19:55.056Z,79.10
2018-01-13T02:21:57.734Z,86.10
2018-01-13T02:24:00.534Z,75.60
2018-01-13T02:26:03.181Z,82.27
2018-01-13T02:28:05.844Z,80.57
2018-01-13T02:30:08.522Z,84.20
2018-01-13T02:32:11.960Z,82.00
2018-01-13T02:34:14.823Z,78.50
2018-01-13T02:36:17.481Z,80.40
2018-01-13T02:38:20.151Z,82.77
2018-01-13T02:40:22.983Z,87.53
2018-01-13T02:42:25.636Z,85.53
2018-01-13T02:44:28.286Z,82.10
2018-01-13T02:46:30.971Z,84.17
2018-01-13T02:48:33.706Z,80.70
2018-01-13T02:50:36.361Z,86.90
2018-01-13T02:52:39.046Z,79.70
2018-01-13T02:54:41.706Z,85.67
2018-01-13T02:56:44.353Z,88.20
2018-01-13T02:58:47.039Z,79.97
2018-01-13T03:00:49.691Z,81.27
2018-01-13T03:02:52.364Z,86.83
2018-01-13T03:04:55.011Z,82.80
2018-01-13T03:06:57.665Z,81.60
2018-01-13T03:09:00.350Z,76.03
2018-01-13T03:11:03.014Z,82.43
2018-01-13T03:13:05.656Z,74.27
2018-01-13T03:15:08.340Z,73.27
2018-01-13T03:17:11.011Z,73.73
2018-01-13T03:19:13.669Z,84.00
2018-01-13T03:21:17.121Z,75.77
2018-01-13T03:23:19.786Z,77.00
2018-01-13T03:25:22.526Z,76.77
2018-01-13T03:27:25.206Z,79.30
2018-01-13T03:29:27.865Z,82.77
2018-01-13T03:31:31.304Z,79.77
2018-01-13T03:33:34.003Z,80.57
2018-01-13T03:35:36.667Z,79.57
2018-01-13T03:37:39.544Z,80.10
2018-01-13T03:39:42.195Z,70.50
2018-01-13T03:41:44.878Z,88.10
2018-01-13T03:43:47.562Z,91.10
2018-01-13T03:45:50.221Z,86.00
2018-01-13T03:47:53.165Z,88.40
2018-01-13T03:49:55.910Z,89.00
2018-01-13T03:51:58.571Z,88.93
2018-01-13T03:54:01.442Z,82.20
2018-01-13T03:56:04.110Z,82.20
2018-01-13T03:58:06.778Z,83.97
2018-01-13T04:00:09.427Z,85.70
2018-01-13T04:02:12.110Z,82.70
2018-01-13T04:04:15.539Z,82.10
2018-01-13T04:06:18.246Z,80.53
2018-01-13T04:08:20.910Z,76.67
2018-01-13T04:10:23.561Z,75.03
2018-01-13T04:12:26.245Z,76.03
2018-01-13T04:14:28.902Z,78.07
2018-01-13T04:16:31.573Z,81.43
2018-01-13T04:18:35.025Z,77.70
2018-01-13T04:20:37.667Z,76.93
2018-01-13T04:22:41.359Z,77.60
2018-01-13T04:24:44.043Z,73.70
2018-01-13T04:26:46.726Z,72.80
2018-01-13T04:28:49.378Z,73.33
2018-01-13T04:30:52.093Z,68.40
2018-01-13T04:32:54.742Z,66.73
2018-01-13T04:34:57.397Z,64.60
2018-01-13T04:37:00.854Z,69.10
2018-01-13T04:39:03.563Z,71.17
2018-01-13T04:41:06.976Z,73.83
2018-01-13T04:43:09.760Z,76.40
2018-01-13T04:45:12.408Z,72.93
2018-01-13T04:47:15.824Z,76.10
2018-01-13T04:49:19.264Z,72.60
2018-01-13T04:51:21.974Z,71.47
2018-01-13T04:53:25.391Z,76.50
2018-01-13T04:55:28.102Z,76.17
2018-01-13T04:57:30.766Z,72.90
2018-01-13T04:59:33.435Z,70.30
2018-01-13T05:01:36.127Z,74.60
2018-01-13T05:03:38.786Z,75.03
2018-01-13T05:05:41.427Z,71.50
2018-01-13T05:07:44.874Z,72.30
2018-01-13T05:09:47.534Z,69.60
2018-01-13T05:11:50.338Z,71.43
2018-01-13T05:13:53.001Z,68.07
2018-01-13T05:15:55.652Z,69.70
2018-01-13T05:17:58.464Z,66.87
2018-01-13T05:20:01.103Z,68.20
2018-01-13T05:22:03.796Z,71.57
2018-01-13T05:24:06.497Z,69.10
2018-01-13T05:26:09.150Z,70.37
2018-01-13T05:28:11.822Z,67.03
2018-01-13T05:30:14.503Z,69.10
2018-01-13T05:32:17.153Z,69.67
2018-01-13T05:34:19.799Z,68.03
2018-01-13T05:36:22.482Z,71.53
2018-01-13T05:38:25.910Z,68.67
2018-01-13T05:40:28.586Z,69.53
2018-01-13T05:42:31.293Z,66.87
2018-01-13T05:44:33.949Z,68.30
2018-01-13T05:46:36.634Z,68.00
2018-01-13T05:48:39.326Z,69.93
2018-01-13T05:50:41.977Z,70.87
2018-01-13T05:52:44.732Z,70.20
2018-01-13T05:54:47.457Z,68.80
2018-01-13T05:56:50.125Z,74.37
2018-01-13T05:58:52.775Z,67.10
2018-01-13T06:00:55.466Z,66.73
2018-01-13T06:02:58.108Z,67.10
2018-01-13T06:05:00.764Z,73.80
2018-01-13T06:07:04.218Z,74.23
2018-01-13T06:09:06.886Z,69.73
2018-01-13T06:11:09.720Z,69.07
2018-01-13T06:13:13.182Z,69.93
2018-01-13T06:17:27.306Z,68.10
2018-01-13T06:19:29.996Z,67.23
2018-01-13T06:21:32.658Z,71.80
2018-01-13T06:23:35.318Z,68.93
2018-01-13T06:25:38.065Z,67.10
2018-01-13T06:27:40.704Z,71.80
2018-01-13T06:29:43.371Z,73.53
2018-01-13T06:31:46.061Z,66.60
2018-01-13T06:33:48.729Z,71.37
2018-01-13T06:35:51.424Z,68.87
2018-01-13T06:37:54.094Z,72.50
2018-01-13T06:39:57.020Z,71.20
2018-01-13T06:42:00.451Z,68.97
2018-01-13T06:44:03.269Z,69.97
2018-01-13T06:46:05.928Z,67.43
2018-01-13T06:48:08.622Z,71.33
2018-01-13T06:50:11.265Z,72.80
2018-01-13T06:52:13.952Z,73.20
2018-01-13T06:54:16.756Z,66.70
2018-01-13T06:56:19.406Z,63.43
2018-01-13T06:58:22.157Z,71.53
2018-01-13T07:00:24.831Z,69.47
2018-01-13T07:02:27.500Z,71.97
2018-01-13T07:04:30.218Z,65.30
2018-01-13T07:06:32.909Z,79.00
2018-01-13T07:08:35.591Z,69.87
2018-01-13T07:10:38.237Z,76.30
2018-01-13T07:12:40.916Z,72.57
2018-01-13T07:14:43.553Z,64.77
2018-01-13T07:16:46.627Z,66.57
2018-01-13T07:18:50.197Z,72.07
2018-01-13T07:20:52.860Z,62.40
2018-01-13T07:22:55.598Z,62.37
2018-01-13T07:24:58.277Z,72.50
2018-01-13T07:27:00.916Z,70.70
2018-01-13T07:29:04.354Z,67.40
2018-01-13T07:31:07.138Z,65.33
2018-01-13T07:33:09.823Z,62.27
2018-01-13T07:35:12.468Z,63.20
2018-01-13T07:37:15.338Z,63.57
2018-01-13T07:39:18.058Z,62.30
2018-01-13T07:41:20.733Z,64.37
2018-01-13T07:43:23.410Z,68.40
2018-01-13T07:45:26.064Z,67.80
2018-01-13T07:47:28.935Z,64.93
2018-01-13T07:49:32.474Z,63.63
2018-01-13T07:51:35.147Z,68.73
2018-01-13T07:53:37.809Z,73.97
2018-01-13T07:55:40.694Z,70.23
2018-01-13T07:57:43.464Z,70.13
2018-01-13T07:59:46.159Z,68.60
2018-01-13T08:01:48.803Z,65.10
2018-01-13T08:03:51.456Z,63.20
2018-01-13T08:05:55.046Z,65.20
2018-01-13T08:07:58.486Z,63.37
2018-01-13T08:10:01.224Z,60.63
2018-01-13T08:12:04.678Z,61.57
2018-01-13T08:14:07.356Z,62.40
2018-01-13T08:16:10.102Z,63.93
2018-01-13T08:18:12.761Z,62.80
2018-01-13T08:20:15.427Z,62.17
2018-01-13T08:22:18.230Z,59.63
2018-01-13T08:24:20.899Z,61.97
2018-01-13T08:26:23.553Z,58.37
2018-01-13T08:28:26.992Z,56.97
2018-01-13T08:30:29.707Z,57.30
2018-01-13T08:32:32.660Z,59.60
2018-01-13T08:34:35.360Z,56.63
2018-01-13T08:36:38.029Z,53.30
2018-01-13T08:38:40.685Z,56.57
2018-01-13T08:40:43.423Z,53.57
2018-01-13T08:42:46.089Z,54.37
2018-01-13T08:44:49.511Z,49.53
2018-01-13T08:46:52.272Z,49.70
2018-01-13T08:48:54.924Z,49.10
2018-01-13T08:50:58.335Z,50.00
2018-01-13T08:53:01.780Z,47.40
2018-01-13T08:55:04.457Z,47.20
2018-01-13T08:57:07.120Z,46.83
2018-01-13T08:59:09.826Z,48.20
2018-01-13T09:01:12.512Z,45.30
2018-01-13T09:03:15.213Z,46.43
2018-01-13T09:05:18.663Z,44.30
2018-01-13T09:07:21.337Z,45.60
2018-01-13T09:09:24.001Z,42.47
2018-01-13T09:11:26.679Z,41.73
2018-01-13T09:13:29.323Z,42.10
2018-01-13T09:15:32.011Z,40.10
2018-01-13T09:17:34.913Z,39.40
2018-01-13T09:19:39.624Z,38.03
2018-01-13T09:21:42.348Z,36.20
2018-01-13T09:23:45.671Z,34.23
2018-01-13T09:25:48.453Z,35.47
2018-01-13T09:27:51.263Z,30.93
2018-01-13T09:29:53.950Z,32.17
2018-01-13T09:31:56.631Z,31.70
2018-01-13T09:33:59.338Z,30.20
2018-01-13T09:36:03.489Z,29.43
2018-01-13T09:38:06.190Z,29.77
2018-01-13T09:40:08.879Z,25.00
2018-01-13T09:42:11.551Z,26.87
2018-01-13T09:44:14.436Z,24.40
2018-01-13T09:46:17.126Z,22.33
2018-01-13T09:48:20.602Z,20.90
2018-01-13T09:50:23.280Z,22.93
2018-01-13T09:52:26.076Z,22.30
2018-01-13T09:54:29.508Z,22.13
2018-01-13T09:56:32.752Z,21.20
2018-01-13T09:58:35.452Z,20.80
2018-01-13T10:00:38.901Z,19.63
2018-01-13T10:02:41.577Z,20.67
2018-01-13T10:04:44.262Z,20.10
2018-01-13T10:06:47.721Z,19.63
2018-01-13T10:08:50.375Z,19.70
2018-01-13T10:10:53.812Z,18.63
2018-01-13T10:12:56.454Z,19.50
2018-01-13T10:14:59.099Z,20.70
2018-01-13T10:17:02.559Z,20.10
2018-01-13T10:19:05.421Z,18.20
2018-01-13T10:21:08.112Z,19.07
2018-01-13T10:23:10.766Z,19.83
2018-01-13T10:25:13.462Z,19.90
2018-01-13T10:27:16.133Z,18.97
2018-01-13T10:29:18.795Z,18.60
2018-01-13T10:31:21.531Z,19.73
2018-01-13T10:33:24.205Z,19.23
2018-01-13T10:35:26.849Z,20.47
2018-01-13T10:37:29.498Z,20.57
2018-01-13T10:39:32.160Z,19.63
2018-01-13T10:41:34.829Z,20.13
2018-01-13T10:43:38.305Z,20.17
2018-01-13T10:45:40.962Z,19.53
2018-01-13T10:47:43.609Z,21.40
2018-01-13T10:49:46.296Z,20.10
2018-01-13T10:51:48.954Z,18.53
2018-01-13T10:53:51.607Z,18.67
2018-01-13T10:55:54.294Z,18.23
2018-01-13T10:57:56.943Z,20.67
2018-01-13T11:00:00.374Z,19.00
2018-01-13T11:02:03.068Z,19.30
2018-01-13T11:04:06.004Z,18.30
2018-01-13T11:06:09.436Z,18.70
2018-01-13T11:08:12.124Z,19.50
2018-01-13T11:10:14.765Z,20.30
2018-01-13T11:12:17.439Z,18.17
2018-01-13T11:14:20.121Z,19.00
2018-01-13T11:16:22.817Z,19.07
2018-01-13T11:18:25.459Z,19.30
2018-01-13T11:20:28.155Z,18.83
2018-01-13T11:22:30.820Z,18.37
2018-01-13T11:24:33.477Z,19.50
2018-01-13T11:26:37.015Z,18.10
2018-01-13T11:28:39.672Z,18.33
2018-01-13T11:30:42.338Z,19.10
2018-01-13T11:32:45.023Z,20.03
2018-01-13T11:34:47.813Z,20.30
2018-01-13T11:36:50.464Z,17.93
2018-01-13T11:38:53.966Z,17.37
2018-01-13T11:40:56.613Z,17.27
2018-01-13T11:42:59.278Z,13.53
2018-01-13T11:45:01.966Z,15.73
2018-01-13T11:47:04.646Z,16.60
2018-01-13T11:49:08.075Z,17.07
2018-01-13T11:51:10.792Z,16.40
2018-01-13T11:53:13.462Z,16.80
2018-01-13T11:55:16.107Z,15.87
2018-01-13T11:57:18.776Z,13.47
2018-01-13T11:59:21.426Z,14.60
2018-01-13T12:01:24.112Z,16.03
2018-01-13T12:03:26.769Z,15.50
2018-01-13T12:05:29.410Z,13.63
2018-01-13T12:07:32.852Z,14.80
2018-01-13T12:09:35.501Z,15.40
2018-01-13T12:11:38.161Z,15.40
2018-01-13T12:13:41.623Z,14.63
2018-01-13T12:15:44.280Z,15.47
2018-01-13T12:17:46.929Z,14.60
2018-01-13T12:19:49.612Z,14.67
2018-01-13T12:21:52.263Z,14.70
2018-01-13T12:23:54.943Z,15.40
2018-01-13T12:25:57.684Z,15.17
2018-01-13T12:28:01.329Z,14.63
2018-01-13T12:30:04.024Z,13.87
2018-01-13T12:32:06.787Z,13.53
2018-01-13T12:34:10.572Z,15.40
2018-01-13T12:36:13.568Z,14.00
2018-01-13T12:38:16.345Z,14.30
2018-01-13T12:40:19.243Z,15.30
2018-01-13T12:42:22.114Z,14.40
2018-01-13T12:44:24.786Z,13.93
2018-01-13T12:46:27.565Z,12.73
2018-01-13T12:48:30.242Z,11.50
2018-01-13T12:50:32.908Z,12.53
2018-01-13T12:52:35.590Z,13.00
2018-01-13T12:54:38.277Z,10.87
2018-01-13T12:56:41.186Z,11.60
2018-01-13T12:58:43.839Z,12.00
2018-01-13T13:00:46.528Z,12.37
2018-01-13T13:02:49.182Z,11.00
2018-01-13T13:04:52.107Z,11.30
2018-01-13T13:06:54.763Z,11.70
2018-01-13T13:08:57.407Z,11.10
2018-01-13T13:11:00.089Z,11.00
2018-01-13T13:13:02.777Z,10.97
2018-01-13T13:15:05.446Z,10.30
2018-01-13T13:17:08.764Z,10.73
2018-01-13T13:19:11.409Z,12.73
2018-01-13T13:21:14.088Z,11.80
2018-01-13T13:23:19.214Z,12.90
2018-01-13T13:25:22.175Z,12.20
2018-01-13T13:27:25.601Z,11.20
2018-01-13T13:29:28.282Z,9.70
2018-01-13T13:31:30.925Z,11.60
2018-01-13T13:33:34.382Z,11.60
2018-01-13T13:35:37.064Z,11.77
2018-01-13T13:37:39.745Z,12.50
2018-01-13T13:39:43.202Z,11.50
2018-01-13T13:41:45.886Z,11.40
2018-01-13T13:43:48.640Z,12.30
2018-01-13T13:45:51.288Z,12.67
2018-01-13T13:47:54.728Z,12.63
2018-01-13T13:49:57.372Z,13.60
2018-01-13T13:52:00.019Z,13.20
2018-01-13T13:54:02.702Z,12.63
2018-01-13T13:56:06.127Z,13.00
2018-01-13T13:58:08.779Z,11.20
2018-01-13T14:00:12.225Z,11.80
2018-01-13T14:02:14.885Z,11.30
2018-01-13T14:04:17.540Z,11.73
2018-01-13T14:06:20.239Z,11.67
2018-01-13T14:08:23.028Z,11.53
2018-01-13T14:10:25.795Z,11.80
2018-01-13T14:12:28.711Z,11.90
2018-01-13T14:14:31.385Z,12.57
2018-01-13T14:16:34.060Z,12.23
2018-01-13T14:18:36.745Z,12.37
2018-01-13T14:20:39.405Z,13.20
2018-01-13T14:22:42.072Z,12.70
2018-01-13T14:24:44.733Z,13.80
2018-01-13T14:26:47.404Z,12.13
2018-01-13T14:28:50.070Z,11.97
2018-01-13T14:30:52.708Z,11.67
2018-01-13T14:32:55.394Z,11.60
2018-01-13T14:34:58.862Z,11.80
2018-01-13T14:37:02.277Z,11.97
2018-01-13T14:39:04.989Z,11.50
2018-01-13T14:41:07.682Z,11.40
2018-01-13T14:43:10.369Z,12.03
2018-01-13T14:45:13.061Z,11.47
2018-01-13T14:47:15.703Z,12.60
2018-01-13T14:49:18.419Z,12.03
2018-01-13T14:51:21.086Z,11.20
2018-01-13T14:53:24.510Z,11.90
2018-01-13T14:55:27.953Z,12.20
2018-01-13T14:57:30.669Z,11.93
2018-01-13T14:59:33.326Z,11.17
2018-01-13T15:01:36.019Z,12.03
2018-01-13T15:03:38.696Z,11.80
2018-01-13T15:05:41.344Z,12.37
2018-01-13T15:07:43.995Z,11.40
2018-01-13T15:09:46.765Z,11.53
2018-01-13T15:11:49.437Z,11.07
2018-01-13T15:13:52.506Z,12.00
2018-01-13T15:15:55.976Z,11.17
2018-01-13T15:17:58.621Z,11.67
2018-01-13T15:20:01.262Z,11.10
2018-01-13T15:22:04.713Z,10.70
2018-01-13T15:24:07.555Z,10.90
2018-01-13T15:26:10.217Z,10.90
2018-01-13T15:28:12.884Z,10.53
2018-01-13T15:30:16.307Z,10.20
2018-01-13T15:32:18.986Z,10.30
2018-01-13T15:34:21.662Z,11.20
2018-01-13T15:36:24.324Z,11.13
2018-01-13T15:38:26.984Z,11.43
2018-01-13T15:40:30.430Z,13.77
2018-01-13T15:42:33.082Z,12.07
2018-01-13T15:44:35.793Z,10.70
2018-01-13T15:46:38.459Z,12.20
2018-01-13T15:48:41.139Z,11.53
2018-01-13T15:50:43.794Z,11.90
2018-01-13T15:52:46.482Z,12.57
2018-01-13T15:54:49.148Z,11.60
2018-01-13T15:56:51.834Z,11.60
2018-01-13T15:58:54.699Z,11.20
2018-01-13T16:00:57.367Z,11.30
2018-01-13T16:03:00.018Z,12.17
2018-01-13T16:05:02.705Z,12.50
2018-01-13T16:07:05.345Z,12.07
2018-01-13T16:09:07.984Z,11.47
2018-01-13T16:11:10.776Z,11.70
2018-01-13T16:13:13.471Z,11.80
2018-01-13T16:15:17.315Z,12.17
2018-01-13T16:17:20.259Z,12.00
2018-01-13T16:19:23.721Z,11.70
2018-01-13T16:21:26.822Z,11.73
2018-01-13T16:23:29.527Z,11.37
2018-01-13T16:25:32.261Z,11.20
2018-01-13T16:27:34.992Z,11.83
2018-01-13T16:29:37.755Z,10.97
2018-01-13T16:31:40.457Z,12.10
2018-01-13T16:33:43.915Z,11.00
2018-01-13T16:35:46.764Z,11.60
2018-01-13T16:37:49.553Z,11.57
2018-01-13T16:39:52.355Z,12.07
2018-01-13T16:41:55.895Z,12.67
2018-01-13T16:43:58.661Z,11.90
2018-01-13T16:46:01.780Z,12.10
2018-01-13T16:48:04.456Z,12.20
2018-01-13T16:50:07.236Z,13.00
2018-01-13T16:52:09.947Z,12.07
2018-01-13T16:54:15.395Z,11.87
2018-01-13T16:56:24.663Z,12.43
2018-01-13T16:58:28.537Z,11.60
2018-01-13T17:00:33.041Z,11.30
2018-01-13T17:02:36.409Z,11.80
2018-01-13T17:04:39.706Z,10.93
2018-01-13T17:06:49.039Z,11.73
2018-01-13T17:08:55.320Z,11.80
2018-01-13T17:10:59.286Z,11.40
2018-01-13T17:13:02.198Z,11.83
2018-01-13T17:15:05.128Z,11.43
2018-01-13T17:17:07.951Z,13.00
2018-01-13T17:19:10.883Z,14.53
2018-01-13T17:21:14.376Z,14.60
2018-01-13T17:23:17.075Z,12.03
2018-01-13T17:25:19.825Z,16.37
2018-01-13T17:27:25.551Z,18.20
2018-01-13T17:29:28.260Z,19.40
2018-01-13T17:31:30.942Z,14.83
2018-01-13T17:33:33.750Z,13.13
2018-01-13T17:35:36.454Z,11.60
2018-01-13T17:37:39.197Z,12.57
2018-01-13T17:39:43.125Z,12.53
2018-01-13T17:41:45.792Z,12.20
2018-01-13T17:43:48.601Z,12.97
2018-01-13T17:45:51.257Z,13.90
2018-01-13T17:47:54.004Z,12.63
2018-01-13T17:49:57.795Z,13.00
2018-01-13T17:52:00.463Z,12.27
2018-01-13T17:54:03.877Z,14.67
2018-01-13T17:56:06.640Z,15.53
2018-01-13T17:58:10.064Z,14.67
2018-01-13T18:00:12.709Z,14.93
2018-01-13T18:02:16.143Z,13.77
2018-01-13T18:04:18.785Z,12.50
2018-01-13T18:06:22.185Z,13.70
2018-01-13T18:08:24.871Z,12.90
2018-01-13T18:10:27.574Z,13.67
2018-01-13T18:12:30.218Z,12.77
2018-01-13T18:14:32.942Z,12.80
2018-01-13T18:16:35.608Z,12.40
2018-01-13T18:18:38.266Z,12.90
2018-01-13T18:20:41.031Z,13.40
2018-01-13T18:22:43.670Z,13.17
2018-01-13T18:24:46.328Z,13.00
2018-01-13T18:26:49.171Z,13.60
2018-01-13T18:28:51.819Z,14.93
2018-01-13T18:30:55.342Z,13.30
2018-01-13T18:32:58.008Z,13.90
2018-01-13T18:35:00.644Z,13.77
2018-01-13T18:37:03.345Z,14.70
2018-01-13T18:39:06.780Z,14.70
2018-01-13T18:41:09.419Z,14.20
2018-01-13T18:43:12.086Z,14.10
2018-01-13T18:45:15.520Z,13.90
2018-01-13T18:47:18.178Z,14.63
2018-01-13T18:49:20.844Z,14.70
2018-01-13T18:51:23.520Z,14.50
2018-01-13T18:53:26.307Z,13.70
2018-01-13T18:55:28.977Z,14.70
2018-01-13T18:57:31.678Z,14.87
2018-01-13T18:59:34.320Z,13.90
2018-01-13T19:01:37.748Z,14.20
2018-01-13T19:03:40.425Z,14.47
2018-01-13T19:05:43.082Z,14.13
2018-01-13T19:07:45.740Z,16.30
2018-01-13T19:09:48.431Z,16.13
2018-01-13T19:11:51.094Z,15.23
2018-01-13T19:13:53.742Z,16.73
2018-01-13T19:15:56.439Z,16.17
2018-01-13T19:18:00.058Z,15.53
2018-01-13T19:20:02.708Z,15.00
2018-01-13T19:22:06.244Z,15.70
2018-01-13T19:24:08.927Z,15.63
2018-01-13T19:26:11.593Z,14.80
2018-01-13T19:28:14.275Z,15.57
2018-01-13T19:30:16.916Z,15.37
2018-01-13T19:32:20.374Z,13.83
2018-01-13T19:34:23.015Z,14.40
2018-01-13T19:36:25.744Z,16.93
2018-01-13T19:38:29.185Z,16.53
2018-01-13T19:40:31.840Z,16.03
2018-01-13T19:42:34.502Z,15.10
2018-01-13T19:44:38.047Z,15.27
2018-01-13T19:46:41.135Z,15.87
2018-01-13T19:48:44.360Z,15.80
2018-01-13T19:50:47.071Z,15.60
2018-01-13T19:52:49.725Z,16.20
2018-01-13T19:54:56.626Z,14.97
2018-01-13T19:56:59.471Z,15.30
2018-01-13T19:59:02.297Z,15.43
2018-01-13T20:01:05.010Z,14.90
2018-01-13T20:03:07.677Z,14.87
2018-01-13T20:05:10.345Z,13.63
2018-01-13T20:07:13.583Z,15.80
2018-01-13T20:09:17.054Z,14.10
2018-01-13T20:11:20.511Z,15.00
2018-01-13T20:13:23.326Z,15.17
2018-01-13T20:15:25.972Z,15.00
2018-01-13T20:17:28.616Z,14.20
2018-01-13T20:19:31.310Z,15.77
2018-01-13T20:21:34.085Z,15.13
2018-01-13T20:23:37.544Z,14.47
2018-01-13T20:25:41.113Z,15.83
2018-01-13T20:27:43.752Z,15.40
2018-01-13T20:29:46.474Z,15.20
2018-01-13T20:31:49.220Z,14.67
2018-01-13T20:33:51.971Z,17.27
2018-01-13T20:35:54.638Z,14.83
2018-01-13T20:37:58.220Z,14.77
2018-01-13T20:40:01.365Z,14.47
2018-01-13T20:42:04.859Z,14.40
2018-01-13T20:44:07.621Z,15.50
2018-01-13T20:46:10.646Z,15.80
2018-01-13T20:48:13.308Z,15.43
2018-01-13T20:50:16.028Z,15.13
2018-01-13T20:52:20.637Z,16.03
2018-01-13T20:54:24.099Z,15.80
2018-01-13T20:56:26.819Z,15.60
2018-01-13T20:58:30.240Z,15.70
2018-01-13T21:00:32.914Z,15.70
2018-01-13T21:02:35.606Z,15.60
2018-01-13T21:04:38.415Z,15.53
2018-01-13T21:06:41.968Z,15.40
2018-01-13T21:08:45.455Z,15.47
2018-01-13T21:10:48.370Z,15.27
2018-01-13T21:12:51.188Z,16.00
2018-01-13T21:14:53.873Z,15.50
2018-01-13T21:16:57.439Z,15.40
2018-01-13T21:19:00.198Z,15.50
2018-01-13T21:21:03.270Z,15.70
2018-01-13T21:23:06.268Z,15.23
2018-01-13T21:25:08.975Z,17.27
2018-01-13T21:27:12.846Z,15.37
2018-01-13T21:29:15.711Z,16.00
2018-01-13T21:31:18.375Z,16.37
2018-01-13T21:33:23.002Z,16.40
2018-01-13T21:35:25.738Z,16.77
2018-01-13T21:37:28.408Z,18.20
2018-01-13T21:39:32.256Z,16.60
2018-01-13T21:41:34.915Z,16.87
2018-01-13T21:43:38.395Z,16.20
2018-01-13T21:45:41.946Z,16.33
2018-01-13T21:47:44.601Z,17.53
2018-01-13T21:49:47.317Z,16.30
2018-01-13T21:51:49.989Z,16.23
2018-01-13T21:53:52.672Z,16.40
2018-01-13T21:55:55.336Z,17.63
2018-01-13T21:57:58.076Z,16.80
2018-01-13T22:00:00.887Z,16.67
2018-01-13T22:02:03.563Z,19.37
2018-01-13T22:04:06.250Z,22.23
2018-01-13T22:06:09.000Z,21.17
2018-01-13T22:08:11.662Z,22.20
2018-01-13T22:10:15.102Z,19.87
2018-01-13T22:12:17.761Z,24.00
2018-01-13T22:14:20.423Z,17.27
2018-01-13T22:16:23.136Z,17.60
2018-01-13T22:18:25.887Z,18.47
2018-01-13T22:20:28.563Z,16.00
2018-01-13T22:22:31.218Z,17.37
2018-01-13T22:24:34.647Z,17.60
2018-01-13T22:26:37.327Z,17.27
2018-01-13T22:28:39.994Z,16.07
2018-01-13T22:30:42.644Z,16.77
2018-01-13T22:32:45.327Z,16.40
2018-01-13T22:34:48.201Z,16.07
2018-01-13T22:36:50.847Z,15.97
2018-01-13T22:38:53.566Z,15.70
2018-01-13T22:40:56.205Z,16.43
2018-01-13T22:42:59.635Z,16.60
2018-01-13T22:45:02.324Z,15.93
2018-01-13T22:47:04.987Z,16.90
2018-01-13T22:49:07.646Z,15.67
2018-01-13T22:51:10.331Z,15.30
2018-01-13T22:53:13.108Z,16.00
2018-01-13T22:55:16.137Z,16.57
2018-01-13T22:57:18.824Z,16.03
2018-01-13T22:59:21.561Z,15.90
2018-01-13T23:01:24.268Z,13.70
2018-01-13T23:03:26.950Z,15.03
2018-01-13T23:05:29.686Z,16.00
2018-01-13T23:07:33.295Z,16.70
2018-01-13T23:09:37.070Z,15.37
2018-01-13T23:11:39.758Z,14.90
2018-01-13T23:13:42.489Z,14.10
2018-01-13T23:15:45.210Z,14.73
2018-01-13T23:20:28.161Z,15.40
2018-01-13T23:22:30.886Z,15.40
2018-01-13T23:24:34.702Z,14.90
2018-01-13T23:26:37.634Z,14.20
2018-01-13T23:28:40.290Z,16.00
2018-01-13T23:30:43.031Z,15.03
2018-01-13T23:32:45.719Z,15.50
2018-01-13T23:34:48.692Z,16.00
2018-01-13T23:36:51.456Z,15.87
2018-01-13T23:38:54.162Z,14.77
2018-01-13T23:40:56.948Z,15.47
2018-01-13T23:42:59.631Z,15.37
2018-01-13T23:45:03.402Z,15.47
2018-01-13T23:47:07.841Z,15.27
2018-01-13T23:49:11.320Z,13.77
2018-01-13T23:51:13.973Z,14.53
2018-01-13T23:53:16.658Z,14.30
2018-01-13T23:55:19.340Z,13.47
2018-01-13T23:57:22.029Z,14.00
2018-01-13T23:59:24.828Z,14.73
